Time;durP1;ratioP1;P1;durP2;ratioP2;P2;SDS_P1;SDS_P2;PMS_P1;PMS_P2;Temp;Humidity;BMP_temperature;BMP_pressure;BME280_temperature;BME280_humidity;BME280_pressure;Samples;Min_cycle;Max_cycle;Signal;HPM_P1;HPM_P2
2021/01/03 00:02:45;;;;;;;9.93;1.83;;;7.80;99.90;;;;;;5031361;28;20049;-57
2021/01/03 00:05:50;;;;;;;12.68;1.80;;;7.90;99.90;;;;;;5031395;28;20433;-58
2021/01/03 00:08:54;;;;;;;8.65;1.98;;;7.90;99.90;;;;;;5019217;28;20306;-58
2021/01/03 00:11:59;;;;;;;12.45;2.10;;;8.00;99.90;;;;;;5030492;28;20041;-58
2021/01/03 00:15:06;;;;;;;20.88;4.10;;;8.00;99.90;;;;;;5031330;28;20048;-59
2021/01/03 00:18:10;;;;;;;35.15;8.57;;;7.70;99.90;;;;;;5030379;28;20045;-59
2021/01/03 00:21:15;;;;;;;15.90;2.20;;;7.60;99.90;;;;;;5030367;28;20040;-59
2021/01/03 00:24:20;;;;;;;18.23;3.22;;;7.40;99.90;;;;;;5030347;28;20060;-58
2021/01/03 00:27:24;;;;;;;12.73;2.50;;;7.30;99.90;;;;;;5026229;28;20431;-57
2021/01/03 00:30:28;;;;;;;10.52;3.78;;;7.40;99.90;;;;;;5029922;28;20526;-58
2021/01/03 00:33:33;;;;;;;12.35;1.95;;;7.70;99.90;;;;;;5030548;28;20506;-58
2021/01/03 00:36:37;;;;;;;12.27;2.78;;;7.90;99.90;;;;;;5030325;28;20503;-59
2021/01/03 00:39:42;;;;;;;17.92;3.58;;;7.90;99.90;;;;;;5030027;28;20491;-58
2021/01/03 00:42:46;;;;;;;12.40;2.80;;;8.00;99.90;;;;;;5030198;28;20052;-59
2021/01/03 00:45:51;;;;;;;9.85;2.67;;;7.80;99.90;;;;;;5030242;28;20053;-59
2021/01/03 00:48:55;;;;;;;11.57;2.22;;;7.60;99.90;;;;;;5030282;28;20053;-60
2021/01/03 00:51:59;;;;;;;14.73;2.90;;;7.80;99.90;;;;;;5029681;28;20041;-60
2021/01/03 00:55:06;;;;;;;7.88;1.63;;;7.80;99.90;;;;;;5017402;28;20045;-60
2021/01/03 00:58:11;;;;;;;10.50;3.38;;;7.80;99.90;;;;;;5029053;28;20049;-60
2021/01/03 01:01:15;;;;;;;9.18;1.48;;;7.80;99.90;;;;;;5029130;28;20040;-58
2021/01/03 01:04:20;;;;;;;14.30;2.20;;;7.90;99.90;;;;;;5030110;28;20042;-59
2021/01/03 01:07:24;;;;;;;6.63;1.30;;;8.00;99.90;;;;;;5019909;28;20045;-59
2021/01/03 01:10:29;;;;;;;13.80;2.40;;;8.10;99.90;;;;;;5016409;28;20029;-59
2021/01/03 01:13:34;;;;;;;11.63;1.50;;;8.00;99.90;;;;;;5029403;28;20040;-56
2021/01/03 01:16:38;;;;;;;17.95;1.83;;;7.90;99.90;;;;;;5020412;28;20408;-58
2021/01/03 01:19:42;;;;;;;8.38;1.60;;;7.80;99.90;;;;;;5029274;28;20442;-58
2021/01/03 01:22:47;;;;;;;13.57;2.13;;;7.90;99.90;;;;;;5028835;28;20034;-58
2021/01/03 01:25:51;;;;;;;8.05;1.65;;;7.90;99.90;;;;;;5029201;28;20048;-57
2021/01/03 01:28:56;;;;;;;13.98;2.40;;;7.90;99.90;;;;;;5028617;28;20029;-56
2021/01/03 01:32:04;;;;;;;8.15;1.85;;;7.90;99.90;;;;;;5035353;28;20526;-59
2021/01/03 01:35:11;;;;;;;8.80;2.13;;;7.90;99.90;;;;;;5036070;28;20033;-56
2021/01/03 01:38:15;;;;;;;8.63;1.80;;;8.20;99.90;;;;;;5035770;28;20046;-59
2021/01/03 01:41:20;;;;;;;16.75;2.00;;;8.20;99.90;;;;;;5035063;28;20037;-58
2021/01/03 01:44:24;;;;;;;12.40;1.90;;;8.00;99.90;;;;;;5035455;28;20408;-57
2021/01/03 01:47:32;;;;;;;12.10;1.63;;;8.00;99.90;;;;;;5035256;28;20044;-59
2021/01/03 01:50:43;;;;;;;12.50;1.80;;;8.00;99.90;;;;;;5035506;28;20044;-58
2021/01/03 01:53:47;;;;;;;10.35;1.60;;;7.90;99.90;;;;;;5035236;28;20044;-58
2021/01/03 01:57:00;;;;;;;15.43;1.67;;;7.80;99.90;;;;;;5023178;28;20519;-58
2021/01/03 02:00:11;;;;;;;3.65;1.17;;;7.80;99.90;;;;;;5034903;28;20044;-59
2021/01/03 02:03:45;;;;;;;6.63;1.17;;;7.80;99.90;;;;;;5035722;28;20045;-59
2021/01/03 02:07:00;;;;;;;7.50;1.60;;;7.80;99.90;;;;;;5035688;28;20492;-59
2021/01/03 02:10:40;;;;;;;5.07;1.40;;;7.70;99.90;;;;;;5035442;28;20324;-56
2021/01/03 02:13:48;;;;;;;8.20;1.70;;;7.70;99.90;;;;;;5030674;28;20045;-59
2021/01/03 02:16:52;;;;;;;11.65;1.50;;;7.70;99.90;;;;;;5035333;28;20029;-58
2021/01/03 02:19:58;;;;;;;11.10;2.35;;;7.60;99.90;;;;;;5035402;28;20084;-58
2021/01/03 02:23:07;;;;;;;8.73;1.70;;;7.50;99.90;;;;;;5035368;28;20041;-59
2021/01/03 02:26:13;;;;;;;8.32;1.50;;;7.40;99.90;;;;;;5035229;28;20037;-58
2021/01/03 02:29:21;;;;;;;6.57;1.33;;;7.30;99.90;;;;;;5035284;28;20327;-59
2021/01/03 02:32:26;;;;;;;13.23;2.53;;;7.30;99.90;;;;;;5035116;28;20033;-59
2021/01/03 02:35:31;;;;;;;6.25;1.58;;;7.20;99.90;;;;;;5035889;28;20052;-58
2021/01/03 02:38:41;;;;;;;10.82;2.40;;;7.00;99.90;;;;;;5035889;28;20045;-56
2021/01/03 02:41:47;;;;;;;7.40;1.90;;;6.80;99.90;;;;;;5033322;28;20056;-57
2021/01/03 02:44:52;;;;;;;7.68;2.10;;;6.90;99.90;;;;;;5032557;28;20037;-57
2021/01/03 02:48:05;;;;;;;7.72;2.40;;;7.20;99.90;;;;;;5020929;28;20042;-60
2021/01/03 02:51:09;;;;;;;13.10;3.47;;;7.00;99.90;;;;;;5014383;28;20029;-58
2021/01/03 02:54:14;;;;;;;8.73;1.70;;;6.80;99.90;;;;;;5022072;28;20396;-59
2021/01/03 02:57:17;;;;;;;10.38;2.47;;;6.70;99.90;;;;;;5019526;28;20041;-60
2021/01/03 03:00:30;;;;;;;13.80;2.28;;;6.50;99.90;;;;;;5031671;28;20040;-59
2021/01/03 03:03:35;;;;;;;15.90;1.85;;;6.40;99.90;;;;;;5028967;28;20032;-60
2021/01/03 03:06:39;;;;;;;10.10;1.90;;;6.30;99.90;;;;;;5026068;28;20048;-59
2021/01/03 03:09:43;;;;;;;5.45;1.70;;;6.20;99.90;;;;;;5031637;28;20045;-60
2021/01/03 03:12:55;;;;;;;14.15;2.20;;;6.10;99.90;;;;;;5019475;28;20042;-60
2021/01/03 03:15:59;;;;;;;7.00;2.20;;;6.10;99.90;;;;;;5031481;28;20048;-59
2021/01/03 03:19:03;;;;;;;10.35;2.10;;;6.10;99.90;;;;;;5031169;28;20033;-59
2021/01/03 03:22:07;;;;;;;9.82;3.00;;;6.10;99.90;;;;;;5030925;28;20054;-57
2021/01/03 03:25:13;;;;;;;15.93;2.42;;;6.10;99.90;;;;;;5031496;28;20440;-60
2021/01/03 03:28:18;;;;;;;14.10;2.30;;;6.10;99.90;;;;;;5031107;28;20064;-59
2021/01/03 03:31:27;;;;;;;10.52;2.40;;;6.10;99.90;;;;;;5029926;28;20044;-60
2021/01/03 03:34:31;;;;;;;13.05;1.98;;;6.00;99.90;;;;;;5031208;28;20029;-58
2021/01/03 03:37:39;;;;;;;7.50;1.40;;;6.10;99.90;;;;;;5030761;28;20052;-58
2021/01/03 03:40:43;;;;;;;7.22;1.30;;;6.10;99.90;;;;;;5031118;28;20488;-59
2021/01/03 03:43:48;;;;;;;7.85;1.73;;;6.10;99.90;;;;;;5030368;28;20029;-59
2021/01/03 03:47:01;;;;;;;5.40;2.00;;;5.90;99.90;;;;;;5031117;28;20049;-59
2021/01/03 03:50:16;;;;;;;6.90;2.10;;;5.70;99.90;;;;;;5018192;28;20037;-58
2021/01/03 03:53:20;;;;;;;7.55;1.38;;;5.70;99.90;;;;;;5029387;28;20034;-58
2021/01/03 03:56:24;;;;;;;7.40;1.30;;;6.00;99.90;;;;;;5030652;28;20034;-58
2021/01/03 03:59:28;;;;;;;5.78;1.50;;;6.40;99.90;;;;;;5029388;28;20503;-58
2021/01/03 04:02:32;;;;;;;8.38;2.53;;;6.50;99.90;;;;;;5030307;28;20500;-59
2021/01/03 04:05:36;;;;;;;5.82;1.25;;;6.60;99.90;;;;;;5030800;28;20053;-59
2021/01/03 04:08:41;;;;;;;7.75;1.30;;;6.70;99.90;;;;;;5016883;28;20026;-56
2021/01/03 04:11:47;;;;;;;5.05;1.38;;;6.70;99.90;;;;;;5029875;28;20029;-58
2021/01/03 04:14:52;;;;;;;9.02;2.13;;;6.60;99.90;;;;;;5031897;28;20036;-58
2021/01/03 04:17:57;;;;;;;6.68;1.02;;;6.60;99.90;;;;;;5030445;28;20041;-61
2021/01/03 04:21:01;;;;;;;6.90;2.35;;;6.70;99.90;;;;;;5029793;28;20037;-59
2021/01/03 04:24:06;;;;;;;5.88;1.40;;;6.60;99.90;;;;;;5029863;28;20049;-56
2021/01/03 04:27:11;;;;;;;2.92;1.08;;;6.40;99.90;;;;;;5024393;28;20041;-60
2021/01/03 04:30:16;;;;;;;5.30;1.15;;;6.40;99.90;;;;;;5030264;28;20038;-56
2021/01/03 04:33:21;;;;;;;6.60;1.58;;;6.40;99.90;;;;;;5029718;28;20045;-59
2021/01/03 04:36:25;;;;;;;9.85;1.23;;;6.30;99.90;;;;;;5040544;28;20037;-59
2021/01/03 04:39:30;;;;;;;9.65;1.42;;;6.20;99.90;;;;;;5029975;28;20037;-57
2021/01/03 04:42:35;;;;;;;5.97;1.20;;;6.10;99.90;;;;;;5028843;28;20539;-60
2021/01/03 04:45:45;;;;;;;4.53;1.17;;;6.10;99.90;;;;;;5030304;28;20037;-57
2021/01/03 04:48:52;;;;;;;6.72;1.65;;;6.10;99.90;;;;;;5020403;28;20033;-60
2021/01/03 04:52:33;;;;;;;8.15;1.33;;;6.10;99.90;;;;;;5018248;28;20034;-59
2021/01/03 04:55:46;;;;;;;5.68;1.30;;;6.20;99.90;;;;;;5030131;28;20422;-57
2021/01/03 04:59:14;;;;;;;6.10;1.10;;;6.20;99.90;;;;;;5029417;28;20049;-59
2021/01/03 05:02:44;;;;;;;3.78;1.60;;;6.00;99.90;;;;;;5030146;28;20034;-61
2021/01/03 05:05:51;;;;;;;8.15;1.80;;;5.80;99.90;;;;;;5029765;28;20037;-61
2021/01/03 05:08:58;;;;;;;5.55;1.35;;;5.60;99.90;;;;;;5017407;28;20037;-59
2021/01/03 05:12:52;;;;;;;7.25;1.48;;;5.60;99.90;;;;;;5029129;28;20049;-58
2021/01/03 05:15:56;;;;;;;4.40;1.58;;;5.70;99.90;;;;;;4993301;28;20033;-59
2021/01/03 05:19:01;;;;;;;5.57;1.48;;;5.40;99.90;;;;;;5029383;28;20577;-60
2021/01/03 05:22:05;;;;;;;3.95;1.52;;;5.50;99.90;;;;;;5028896;28;20038;-60
2021/01/03 05:25:11;;;;;;;7.38;1.52;;;5.40;99.90;;;;;;5029210;28;20096;-58
2021/01/03 05:28:53;;;;;;;4.85;1.40;;;5.40;99.90;;;;;;5028975;28;20045;-58
2021/01/03 05:32:07;;;;;;;8.77;1.33;;;5.40;99.90;;;;;;5029130;28;20041;-59
2021/01/03 05:35:27;;;;;;;5.20;1.55;;;5.30;99.90;;;;;;5029090;28;20038;-60
2021/01/03 05:38:37;;;;;;;6.72;1.60;;;5.20;99.90;;;;;;5029160;28;20373;-59
2021/01/03 05:41:44;;;;;;;6.85;2.25;;;5.10;99.90;;;;;;5028743;28;20038;-59
2021/01/03 05:45:11;;;;;;;2.83;1.33;;;5.20;99.90;;;;;;5028691;28;20033;-59
2021/01/03 05:48:22;;;;;;;5.22;1.75;;;5.10;99.90;;;;;;5029549;28;20041;-59
2021/01/03 05:51:47;;;;;;;4.30;1.15;;;5.20;99.90;;;;;;5029229;28;20037;-56
2021/01/03 05:54:54;;;;;;;6.90;1.55;;;5.20;99.90;;;;;;5028762;28;20029;-57
2021/01/03 05:58:11;;;;;;;5.00;1.48;;;5.20;99.90;;;;;;5028771;28;20041;-60
2021/01/03 06:01:25;;;;;;;3.90;1.30;;;5.20;99.90;;;;;;5029053;28;20037;-59
2021/01/03 06:04:29;;;;;;;5.35;1.27;;;5.20;99.90;;;;;;5029159;28;20026;-59
2021/01/03 06:07:35;;;;;;;3.58;1.10;;;5.40;99.90;;;;;;5020163;28;20042;-58
2021/01/03 06:10:40;;;;;;;3.40;1.23;;;5.40;99.90;;;;;;5017270;28;20041;-59
2021/01/03 06:13:57;;;;;;;2.25;1.17;;;5.50;99.90;;;;;;5028224;28;20033;-59
2021/01/03 06:17:43;;;;;;;2.35;0.82;;;5.50;99.90;;;;;;5029637;28;20034;-57
2021/01/03 06:20:47;;;;;;;2.83;1.20;;;5.60;99.90;;;;;;5032533;28;20033;-61
2021/01/03 06:24:22;;;;;;;3.90;1.25;;;5.50;99.90;;;;;;5031958;28;20042;-59
2021/01/03 06:27:32;;;;;;;1.98;1.10;;;5.50;99.90;;;;;;5028513;28;20084;-58
2021/01/03 06:30:38;;;;;;;5.25;1.60;;;5.40;99.90;;;;;;5032490;28;20041;-59
2021/01/03 06:33:58;;;;;;;3.40;1.52;;;5.30;99.90;;;;;;5032241;28;20049;-59
2021/01/03 06:37:05;;;;;;;2.53;1.20;;;5.30;99.90;;;;;;5032744;28;20041;-60
2021/01/03 06:40:31;;;;;;;3.75;1.70;;;5.20;99.90;;;;;;5032604;28;20495;-57
2021/01/03 06:43:44;;;;;;;4.63;1.38;;;5.20;99.90;;;;;;5028900;28;20417;-58
2021/01/03 06:47:07;;;;;;;2.13;1.30;;;5.10;99.90;;;;;;5031321;28;20041;-59
2021/01/03 06:50:59;;;;;;;5.25;1.50;;;5.10;99.90;;;;;;5024603;28;20587;-59
2021/01/03 06:54:22;;;;;;;;;;;5.20;99.90;;;;;;4998292;28;20366;-57
2021/01/03 06:57:45;;;;;;;3.80;1.45;;;5.20;99.90;;;;;;5012199;28;19936;-60
2021/01/03 07:01:00;;;;;;;3.28;1.63;;;5.20;99.90;;;;;;5011849;28;20033;-60
2021/01/03 07:04:18;;;;;;;2.55;1.25;;;5.20;99.90;;;;;;5011319;28;20500;-61
2021/01/03 07:07:27;;;;;;;2.97;1.40;;;5.20;99.90;;;;;;5020276;28;20033;-61
2021/01/03 07:10:41;;;;;;;4.80;1.38;;;5.20;99.90;;;;;;5019344;28;20034;-60
2021/01/03 07:13:45;;;;;;;4.88;2.20;;;5.30;99.90;;;;;;5027989;28;20424;-58
2021/01/03 07:16:54;;;;;;;2.95;1.17;;;5.40;99.90;;;;;;5029321;28;20042;-59
2021/01/03 07:20:03;;;;;;;2.38;1.10;;;5.50;99.90;;;;;;5029756;28;20396;-60
2021/01/03 07:23:17;;;;;;;5.72;1.80;;;5.60;99.90;;;;;;5026778;28;20510;-60
2021/01/03 07:26:30;;;;;;;4.00;1.45;;;5.70;99.90;;;;;;5026983;28;20045;-59
2021/01/03 07:29:34;;;;;;;3.65;1.20;;;5.70;99.90;;;;;;5027687;28;20500;-60
2021/01/03 07:32:38;;;;;;;10.70;4.60;;;5.90;99.90;;;;;;5025688;28;20038;-58
2021/01/03 07:35:43;;;;;;;10.00;3.45;;;5.90;99.90;;;;;;5029150;28;20586;-60
2021/01/03 07:39:21;;;;;;;13.32;3.67;;;6.00;99.90;;;;;;5029113;28;20052;-60
2021/01/03 07:42:36;;;;;;;4.03;1.25;;;6.20;99.90;;;;;;5028082;28;20040;-61
2021/01/03 07:45:47;;;;;;;1.27;0.85;;;6.70;99.90;;;;;;5020604;28;20029;-60
2021/01/03 07:48:51;;;;;;;5.88;1.80;;;7.10;99.90;;;;;;5030714;28;20041;-61
2021/01/03 07:51:55;;;;;;;2.45;1.00;;;7.00;99.90;;;;;;5018252;28;20405;-59
2021/01/03 07:55:00;;;;;;;3.33;1.13;;;7.70;99.90;;;;;;5027676;28;20037;-59
2021/01/03 07:58:14;;;;;;;6.93;2.15;;;9.30;99.90;;;;;;5033066;28;20033;-57
2021/01/03 08:01:22;;;;;;;6.05;0.80;;;11.60;99.90;;;;;;5016183;28;20041;-59
2021/01/03 08:04:29;;;;;;;1.80;0.70;;;11.60;99.90;;;;;;5025473;28;20045;-59
2021/01/03 08:07:33;;;;;;;5.72;1.10;;;11.30;99.90;;;;;;5027802;28;20044;-57
2021/01/03 08:10:37;;;;;;;3.53;1.23;;;11.20;99.90;;;;;;5028659;28;20049;-58
2021/01/03 08:13:45;;;;;;;2.08;1.10;;;11.10;99.90;;;;;;5027024;28;20053;-59
2021/01/03 08:16:49;;;;;;;2.42;1.02;;;11.50;99.90;;;;;;5022611;28;20404;-60
2021/01/03 08:20:01;;;;;;;2.42;1.05;;;11.90;99.90;;;;;;5027075;28;20060;-59
2021/01/03 08:23:23;;;;;;;2.17;0.95;;;11.60;99.90;;;;;;5019933;28;20048;-58
2021/01/03 08:26:28;;;;;;;2.65;1.13;;;11.30;99.90;;;;;;5014264;28;20045;-60
2021/01/03 08:29:36;;;;;;;2.65;1.05;;;11.70;99.90;;;;;;5024711;28;20044;-59
2021/01/03 08:32:41;;;;;;;2.95;1.10;;;11.10;99.90;;;;;;5025085;28;20041;-59
2021/01/03 08:35:46;;;;;;;2.53;1.10;;;12.10;99.90;;;;;;5025527;28;20049;-59
2021/01/03 08:38:52;;;;;;;2.90;1.30;;;13.00;99.90;;;;;;5028670;28;20042;-58
2021/01/03 08:42:07;;;;;;;3.67;1.40;;;13.30;99.90;;;;;;5018712;28;20514;-59
2021/01/03 08:45:20;;;;;;;5.78;1.45;;;12.60;99.90;;;;;;5027906;28;20053;-60
2021/01/03 08:48:25;;;;;;;3.10;1.40;;;12.60;99.90;;;;;;5024429;28;20130;-57
2021/01/03 08:51:30;;;;;;;1.70;1.20;;;12.30;99.90;;;;;;5028766;28;20542;-59
2021/01/03 08:54:34;;;;;;;5.30;1.20;;;12.20;99.90;;;;;;5025115;28;20045;-57
2021/01/03 08:57:40;;;;;;;2.45;1.23;;;10.80;99.90;;;;;;5022677;28;20036;-56
2021/01/03 09:00:49;;;;;;;5.38;1.10;;;11.00;99.90;;;;;;5023959;28;20049;-56
2021/01/03 09:03:58;;;;;;;4.32;1.30;;;10.30;99.90;;;;;;5029301;28;20064;-58
2021/01/03 09:07:07;;;;;;;2.15;1.20;;;10.10;99.90;;;;;;5035384;28;20044;-56
2021/01/03 09:10:23;;;;;;;6.25;1.48;;;9.10;99.90;;;;;;5026854;28;20072;-57
2021/01/03 09:13:29;;;;;;;2.83;1.40;;;9.10;99.90;;;;;;5016461;28;20046;-59
2021/01/03 09:16:55;;;;;;;6.00;1.40;;;9.40;99.90;;;;;;5023477;28;20037;-60
2021/01/03 09:20:23;;;;;;;5.88;1.58;;;9.20;99.90;;;;;;5024747;28;20041;-60
2021/01/03 09:23:29;;;;;;;3.42;1.00;;;9.40;99.90;;;;;;5026143;28;20045;-60
2021/01/03 09:26:38;;;;;;;4.45;1.30;;;10.00;99.90;;;;;;5017467;28;20033;-60
2021/01/03 09:29:42;;;;;;;2.63;1.15;;;9.30;99.90;;;;;;5026664;28;20124;-58
2021/01/03 09:32:52;;;;;;;2.85;1.50;;;8.90;99.90;;;;;;5024725;28;20488;-56
2021/01/03 09:36:02;;;;;;;3.95;1.30;;;8.80;99.90;;;;;;5022583;28;20034;-57
2021/01/03 09:40:00;;;;;;;4.30;1.40;;;9.90;99.90;;;;;;5025103;28;20042;-58
2021/01/03 09:43:23;;;;;;;5.22;1.20;;;10.50;99.90;;;;;;4981023;28;20034;-56
2021/01/03 09:46:31;;;;;;;5.97;1.60;;;11.30;99.90;;;;;;5034363;28;20048;-58
2021/01/03 09:49:35;;;;;;;5.00;0.88;;;12.70;99.90;;;;;;5020174;28;20044;-59
2021/01/03 09:52:58;;;;;;;4.43;1.17;;;15.00;99.90;;;;;;5036790;28;20032;-58
2021/01/03 09:56:12;;;;;;;3.53;1.02;;;14.80;99.90;;;;;;5027487;28;20041;-57
2021/01/03 09:59:20;;;;;;;4.88;1.20;;;13.40;99.90;;;;;;5029232;28;20782;-58
2021/01/03 10:02:25;;;;;;;4.70;1.40;;;11.20;99.90;;;;;;5031709;28;20064;-57
2021/01/03 10:05:37;;;;;;;3.95;1.02;;;9.80;99.90;;;;;;5033834;28;20047;-58
2021/01/03 10:08:43;;;;;;;5.15;1.30;;;9.90;99.90;;;;;;5034666;28;20041;-56
2021/01/03 10:11:47;;;;;;;3.15;1.25;;;9.70;99.90;;;;;;5031927;28;20037;-58
2021/01/03 10:15:07;;;;;;;4.18;1.73;;;9.50;99.90;;;;;;5017334;28;20038;-58
2021/01/03 10:18:13;;;;;;;6.78;1.90;;;9.40;99.90;;;;;;5031232;28;20037;-59
2021/01/03 10:21:33;;;;;;;4.22;1.90;;;10.90;99.90;;;;;;5026022;28;20384;-58
2021/01/03 10:24:37;;;;;;;1.83;1.05;;;12.50;99.90;;;;;;5025970;28;20113;-58
2021/01/03 10:28:01;;;;;;;3.80;1.10;;;10.70;99.90;;;;;;5031585;28;20040;-56
2021/01/03 10:31:05;;;;;;;6.50;1.33;;;9.50;99.90;;;;;;5035785;28;20056;-59
2021/01/03 10:34:09;;;;;;;4.40;2.08;;;8.90;99.90;;;;;;5031823;28;20030;-56
2021/01/03 10:37:14;;;;;;;3.05;1.20;;;9.10;99.90;;;;;;5031247;28;20033;-58
2021/01/03 10:40:19;;;;;;;3.92;1.77;;;9.70;99.90;;;;;;5031840;28;20050;-56
2021/01/03 10:43:23;;;;;;;5.90;1.52;;;10.30;99.90;;;;;;5030921;28;20042;-59
2021/01/03 10:46:28;;;;;;;4.32;1.38;;;9.60;99.90;;;;;;5030218;28;20045;-61
2021/01/03 10:49:32;;;;;;;3.13;1.52;;;8.90;99.90;;;;;;5039122;28;20041;-58
2021/01/03 10:52:37;;;;;;;3.90;1.60;;;8.40;99.90;;;;;;5029618;28;20041;-58
2021/01/03 10:55:41;;;;;;;5.13;1.95;;;8.20;99.90;;;;;;5019694;28;20029;-59
2021/01/03 10:58:45;;;;;;;5.45;1.88;;;8.30;99.90;;;;;;5028032;28;20381;-57
2021/01/03 11:01:50;;;;;;;5.25;2.03;;;8.30;99.90;;;;;;5020819;28;20030;-58
2021/01/03 11:04:54;;;;;;;5.85;1.73;;;8.30;99.90;;;;;;5028373;28;20029;-58
2021/01/03 11:07:59;;;;;;;6.05;2.17;;;8.60;99.90;;;;;;5030003;28;20038;-59
2021/01/03 11:11:05;;;;;;;7.78;1.35;;;9.20;99.90;;;;;;5027906;28;20041;-58
2021/01/03 11:14:09;;;;;;;7.70;2.10;;;9.50;99.90;;;;;;5022263;28;20053;-59
2021/01/03 11:17:15;;;;;;;11.15;3.80;;;9.10;99.90;;;;;;5030406;28;20048;-58
2021/01/03 11:20:20;;;;;;;6.40;2.80;;;9.80;99.90;;;;;;5027360;28;20053;-60
2021/01/03 11:23:24;;;;;;;15.05;5.43;;;9.70;99.90;;;;;;5031684;28;20415;-60
2021/01/03 11:26:31;;;;;;;9.45;4.00;;;9.90;99.90;;;;;;5029644;28;20048;-58
2021/01/03 11:29:35;;;;;;;12.15;4.00;;;9.80;99.90;;;;;;5027688;28;20038;-60
2021/01/03 11:32:43;;;;;;;7.18;2.70;;;9.80;99.90;;;;;;5030560;28;20044;-60
2021/01/03 11:35:47;;;;;;;5.30;2.92;;;9.60;99.90;;;;;;5026533;28;20511;-57
2021/01/03 11:38:52;;;;;;;3.88;1.85;;;9.50;99.90;;;;;;5024449;28;20050;-59
2021/01/03 11:42:00;;;;;;;6.03;1.63;;;9.40;99.90;;;;;;5027985;28;20037;-59
2021/01/03 11:45:08;;;;;;;6.32;1.80;;;9.60;99.90;;;;;;5015780;28;20492;-58
2021/01/03 11:48:12;;;;;;;5.18;1.60;;;9.10;99.90;;;;;;5027218;28;20042;-59
2021/01/03 11:51:18;;;;;;;3.75;2.10;;;9.00;99.90;;;;;;5027236;28;20045;-58
2021/01/03 11:54:21;;;;;;;4.57;1.75;;;9.00;99.90;;;;;;5024877;28;20484;-57
2021/01/03 11:57:26;;;;;;;6.22;2.67;;;9.50;99.90;;;;;;5027165;28;20033;-58
2021/01/03 12:00:32;;;;;;;6.15;2.50;;;9.40;99.90;;;;;;5029706;28;20041;-59
2021/01/03 12:03:37;;;;;;;6.32;2.58;;;9.40;99.90;;;;;;5027289;28;20049;-58
2021/01/03 12:06:42;;;;;;;5.82;2.70;;;9.50;99.90;;;;;;5028687;28;20057;-59
2021/01/03 12:09:47;;;;;;;6.18;2.00;;;9.20;99.90;;;;;;5034556;28;20033;-58
2021/01/03 12:12:52;;;;;;;7.55;2.47;;;9.10;99.90;;;;;;5032140;28;20049;-57
2021/01/03 12:15:56;;;;;;;6.32;2.05;;;9.40;99.90;;;;;;5033654;28;20033;-57
2021/01/03 12:19:00;;;;;;;3.53;1.83;;;9.30;99.90;;;;;;5026988;28;20033;-57
2021/01/03 12:22:05;;;;;;;7.50;1.58;;;9.70;99.90;;;;;;5027898;28;20025;-56
2021/01/03 12:25:11;;;;;;;7.60;2.20;;;9.90;99.90;;;;;;5026941;28;20029;-58
2021/01/03 12:28:15;;;;;;;4.18;1.80;;;9.10;99.90;;;;;;5025945;28;20045;-57
2021/01/03 12:31:19;;;;;;;6.75;2.00;;;9.00;99.90;;;;;;5027854;28;20030;-59
2021/01/03 12:34:26;;;;;;;6.05;2.33;;;8.90;99.90;;;;;;5032476;28;20041;-57
2021/01/03 12:37:30;;;;;;;6.72;1.90;;;8.80;99.90;;;;;;5029700;28;20484;-57
2021/01/03 12:40:35;;;;;;;3.00;1.65;;;8.60;99.90;;;;;;5030028;28;20033;-56
2021/01/03 12:43:39;;;;;;;6.40;1.52;;;8.60;99.90;;;;;;5031881;28;21174;-59
2021/01/03 12:46:42;;;;;;;6.22;1.65;;;8.70;99.90;;;;;;5040108;28;20037;-55
2021/01/03 12:49:46;;;;;;;7.07;1.98;;;8.70;99.90;;;;;;5032357;28;20041;-59
2021/01/03 12:52:51;;;;;;;4.97;1.60;;;8.70;99.90;;;;;;5013234;28;20049;-57
2021/01/03 12:55:55;;;;;;;6.38;2.78;;;8.70;99.90;;;;;;4986423;28;20052;-59
2021/01/03 12:59:00;;;;;;;13.02;6.18;;;9.00;99.90;;;;;;5008898;28;20030;-58
2021/01/03 13:02:04;;;;;;;3.70;1.60;;;9.10;99.90;;;;;;5007800;28;21392;-59
2021/01/03 13:05:09;;;;;;;6.60;2.70;;;8.80;99.90;;;;;;5007643;28;20045;-59
2021/01/03 13:08:14;;;;;;;6.75;2.65;;;8.60;99.90;;;;;;5004896;28;21440;-59
2021/01/03 13:11:18;;;;;;;5.75;2.22;;;8.70;99.90;;;;;;5007068;28;20056;-58
2021/01/03 13:14:22;;;;;;;3.95;1.95;;;8.60;99.90;;;;;;5007149;28;20033;-56
2021/01/03 13:17:26;;;;;;;5.63;1.85;;;8.70;99.90;;;;;;5003307;28;20038;-58
2021/01/03 13:20:31;;;;;;;6.22;2.40;;;8.60;99.90;;;;;;5005844;28;20038;-59
2021/01/03 13:23:36;;;;;;;4.95;1.75;;;8.70;99.90;;;;;;5006641;28;20380;-59
2021/01/03 13:26:40;;;;;;;7.60;2.53;;;8.60;99.90;;;;;;5015952;28;20041;-58
2021/01/03 13:29:44;;;;;;;5.97;2.30;;;8.50;99.90;;;;;;5007525;28;20042;-60
2021/01/03 13:32:48;;;;;;;5.25;1.92;;;8.40;99.90;;;;;;5006499;28;20041;-58
2021/01/03 13:35:52;;;;;;;3.55;1.98;;;8.40;99.90;;;;;;5008702;28;20041;-57
2021/01/03 13:38:58;;;;;;;7.95;2.25;;;8.40;99.90;;;;;;5010547;28;20515;-59
2021/01/03 13:42:02;;;;;;;5.50;2.10;;;8.50;99.90;;;;;;5002410;28;20041;-60
2021/01/03 13:45:09;;;;;;;10.98;3.95;;;8.50;99.90;;;;;;5007196;28;20045;-59
2021/01/03 13:48:14;;;;;;;28.33;12.82;;;8.40;99.90;;;;;;5006427;28;20065;-60
2021/01/03 13:51:18;;;;;;;8.70;3.10;;;8.30;99.90;;;;;;5007426;28;20538;-57
2021/01/03 13:54:23;;;;;;;9.25;3.85;;;8.20;99.90;;;;;;5010400;28;20041;-59
2021/01/03 13:57:28;;;;;;;5.45;2.40;;;8.30;99.90;;;;;;5007537;28;20038;-58
2021/01/03 14:00:32;;;;;;;4.35;2.20;;;8.30;99.90;;;;;;5010131;28;20030;-59
2021/01/03 14:03:37;;;;;;;9.32;2.40;;;8.20;99.90;;;;;;5000841;28;20037;-59
2021/01/03 14:06:41;;;;;;;4.00;2.25;;;8.20;99.90;;;;;;5002508;28;20420;-56
2021/01/03 14:09:45;;;;;;;6.68;2.55;;;8.10;99.90;;;;;;5003572;28;20034;-54
2021/01/03 14:12:49;;;;;;;5.53;2.33;;;8.10;99.90;;;;;;5001935;28;20042;-58
2021/01/03 14:15:54;;;;;;;4.03;2.22;;;8.10;99.90;;;;;;5006280;28;20037;-59
2021/01/03 14:18:59;;;;;;;6.00;2.50;;;8.00;99.90;;;;;;5009524;28;20109;-58
2021/01/03 14:22:05;;;;;;;5.50;2.22;;;8.00;99.90;;;;;;5005505;28;20041;-58
2021/01/03 14:25:10;;;;;;;5.78;2.00;;;8.10;99.90;;;;;;5006663;28;20413;-59
2021/01/03 14:28:14;;;;;;;7.72;3.13;;;8.20;99.90;;;;;;5008786;28;20476;-59
2021/01/03 14:31:30;;;;;;;7.35;3.40;;;8.10;99.90;;;;;;5004612;28;20041;-58
2021/01/03 14:34:47;;;;;;;4.50;2.42;;;8.00;99.90;;;;;;5009852;28;20033;-60
2021/01/03 14:38:04;;;;;;;7.25;3.22;;;7.90;99.90;;;;;;5009556;28;20037;-59
2021/01/03 14:41:10;;;;;;;10.65;4.82;;;8.00;99.90;;;;;;5010613;28;20532;-59
2021/01/03 14:44:24;;;;;;;7.43;3.90;;;8.00;99.90;;;;;;5007637;28;20408;-56
2021/01/03 14:47:54;;;;;;;9.20;2.90;;;8.00;99.90;;;;;;5010899;28;20034;-60
2021/01/03 14:51:13;;;;;;;8.07;3.28;;;8.00;99.90;;;;;;5006341;28;20771;-60
2021/01/03 14:54:51;;;;;;;8.50;3.65;;;7.90;99.90;;;;;;5009703;28;20041;-59
2021/01/03 14:57:58;;;;;;;7.13;2.72;;;7.90;99.90;;;;;;5004918;28;20053;-60
2021/01/03 15:01:08;;;;;;;6.38;2.30;;;7.80;99.90;;;;;;5010811;28;20037;-58
2021/01/03 15:04:29;;;;;;;12.30;3.05;;;7.70;99.90;;;;;;5008318;28;20038;-58
2021/01/03 15:07:46;;;;;;;9.77;3.10;;;7.70;99.90;;;;;;5013657;28;20052;-58
2021/01/03 15:10:50;;;;;;;6.65;2.33;;;7.50;99.90;;;;;;5015202;28;20151;-57
2021/01/03 15:13:54;;;;;;;4.82;3.00;;;7.60;99.90;;;;;;5009322;28;20046;-56
2021/01/03 15:17:16;;;;;;;6.10;3.03;;;7.50;99.90;;;;;;5003002;28;20050;-61
2021/01/03 15:20:25;;;;;;;6.10;2.90;;;7.50;99.90;;;;;;5010060;28;20612;-55
2021/01/03 15:23:40;;;;;;;5.50;2.92;;;7.50;99.90;;;;;;5002089;28;20047;-57
2021/01/03 15:26:59;;;;;;;8.55;2.70;;;7.60;99.90;;;;;;5007428;28;20903;-58
2021/01/03 15:30:08;;;;;;;6.50;2.78;;;7.50;99.90;;;;;;5013915;28;20044;-57
2021/01/03 15:33:17;;;;;;;10.68;3.63;;;7.60;99.90;;;;;;5008692;28;20044;-57
2021/01/03 15:36:26;;;;;;;7.78;3.80;;;7.50;99.90;;;;;;5014154;28;20053;-57
2021/01/03 15:39:31;;;;;;;9.38;4.15;;;7.40;99.90;;;;;;5016021;28;20029;-58
2021/01/03 15:42:42;;;;;;;8.05;3.92;;;7.40;99.90;;;;;;5004195;28;20759;-59
2021/01/03 15:46:25;;;;;;;3.80;2.60;;;7.40;99.90;;;;;;5011295;28;20034;-59
2021/01/03 15:49:34;;;;;;;22.00;8.70;;;7.40;99.90;;;;;;5026859;28;20063;-57
2021/01/03 15:52:45;;;;;;;7.18;2.90;;;7.40;99.90;;;;;;5004708;28;20060;-58
2021/01/03 15:55:53;;;;;;;9.43;4.18;;;7.30;99.90;;;;;;5011350;28;20842;-58
2021/01/03 15:58:57;;;;;;;7.28;3.97;;;7.30;99.90;;;;;;5014383;28;20041;-57
2021/01/03 16:02:06;;;;;;;17.08;8.43;;;7.30;99.90;;;;;;5001712;28;20046;-58
2021/01/03 16:05:12;;;;;;;7.20;3.63;;;7.30;99.90;;;;;;5009145;28;20045;-58
2021/01/03 16:08:17;;;;;;;10.90;4.55;;;7.30;99.90;;;;;;5010160;28;20037;-58
2021/01/03 16:11:21;;;;;;;5.38;3.28;;;7.30;99.90;;;;;;5007725;28;20140;-57
2021/01/03 16:14:26;;;;;;;7.00;3.80;;;7.10;99.90;;;;;;5008991;28;20046;-58
2021/01/03 16:17:31;;;;;;;8.93;4.43;;;6.90;99.90;;;;;;5004814;28;20045;-57
2021/01/03 16:20:36;;;;;;;8.70;3.15;;;6.70;99.90;;;;;;5009969;28;20034;-58
2021/01/03 16:23:44;;;;;;;21.25;11.27;;;6.60;99.90;;;;;;5003602;28;20044;-59
2021/01/03 16:26:50;;;;;;;5.90;3.25;;;6.60;99.90;;;;;;5006424;28;20044;-60
2021/01/03 16:30:13;;;;;;;6.55;2.10;;;6.40;99.90;;;;;;5010670;28;20069;-60
2021/01/03 16:33:47;;;;;;;3.20;2.13;;;6.30;99.90;;;;;;5001061;28;20029;-60
2021/01/03 16:37:13;;;;;;;6.53;3.00;;;6.20;99.90;;;;;;5006917;28;20045;-57